createdAt,value
2018-07-22T00:00:11.159Z,21.37
2018-07-22T00:02:40.179Z,20.13
2018-07-22T00:05:08.883Z,22.23
2018-07-22T00:07:38.027Z,23.00
2018-07-22T00:10:08.983Z,23.77
2018-07-22T00:12:37.796Z,25.00
2018-07-22T00:15:06.471Z,21.60
2018-07-22T00:17:35.069Z,22.83
2018-07-22T00:20:03.765Z,21.40
2018-07-22T00:22:32.362Z,23.70
2018-07-22T00:25:00.963Z,23.53
2018-07-22T00:27:29.553Z,24.33
2018-07-22T00:29:58.117Z,20.77
2018-07-22T00:32:26.683Z,21.10
2018-07-22T00:34:55.447Z,20.07
2018-07-22T00:37:24.008Z,23.07
2018-07-22T00:39:52.544Z,20.77
2018-07-22T00:42:21.160Z,21.83
2018-07-22T00:44:49.708Z,22.30
2018-07-22T00:47:18.414Z,22.20
2018-07-22T00:49:47.144Z,22.60
2018-07-22T00:52:15.705Z,22.40
2018-07-22T00:54:44.262Z,21.70
2018-07-22T00:57:12.840Z,21.30
2018-07-22T00:59:41.376Z,23.17
2018-07-22T01:02:09.983Z,22.30
2018-07-22T01:04:38.951Z,22.60
2018-07-22T01:07:07.532Z,19.60
2018-07-22T01:09:36.130Z,21.13
2018-07-22T01:12:04.828Z,21.97
2018-07-22T01:14:33.412Z,21.43
2018-07-22T01:17:02.014Z,20.93
2018-07-22T01:19:30.627Z,21.53
2018-07-22T01:21:59.221Z,20.40
2018-07-22T01:24:27.755Z,19.03
2018-07-22T01:26:56.743Z,20.70
2018-07-22T01:29:25.284Z,19.50
2018-07-22T01:31:53.864Z,20.13
2018-07-22T01:34:22.775Z,19.70
2018-07-22T01:36:51.344Z,20.93
2018-07-22T01:39:19.899Z,18.80
2018-07-22T01:41:48.772Z,18.20
2018-07-22T01:44:17.304Z,19.67
2018-07-22T01:46:45.866Z,18.33
2018-07-22T01:49:15.088Z,20.43
2018-07-22T01:51:43.639Z,19.60
2018-07-22T01:54:12.203Z,19.57
2018-07-22T01:56:40.983Z,18.03
2018-07-22T01:59:09.555Z,18.73
2018-07-22T02:01:38.161Z,19.03
2018-07-22T02:04:07.019Z,18.43
2018-07-22T02:06:35.637Z,19.63
2018-07-22T02:09:05.091Z,20.10
2018-07-22T02:11:34.012Z,19.10
2018-07-22T02:14:02.539Z,19.50
2018-07-22T02:16:31.132Z,18.50
2018-07-22T02:18:59.715Z,20.60
2018-07-22T02:21:28.264Z,19.80
2018-07-22T02:23:56.839Z,18.40
2018-07-22T02:26:25.475Z,20.90
2018-07-22T02:28:54.025Z,20.40
2018-07-22T02:31:22.556Z,20.20
2018-07-22T02:33:51.292Z,20.83
2018-07-22T02:36:19.852Z,20.30
2018-07-22T02:38:48.395Z,19.53
2018-07-22T02:41:16.960Z,18.67
2018-07-22T02:43:45.492Z,19.10
2018-07-22T02:46:14.032Z,19.60
2018-07-22T02:48:42.766Z,20.50
2018-07-22T02:51:11.423Z,19.53
2018-07-22T02:53:39.978Z,20.80
2018-07-22T02:56:08.583Z,20.33
2018-07-22T02:58:37.125Z,19.20
2018-07-22T03:01:05.692Z,18.03
2018-07-22T03:03:34.581Z,17.47
2018-07-22T03:06:03.138Z,18.77
2018-07-22T03:08:31.959Z,17.47
2018-07-22T03:11:00.696Z,17.33
2018-07-22T03:13:29.236Z,19.40
2018-07-22T03:15:57.760Z,18.43
2018-07-22T03:18:26.329Z,17.87
2018-07-22T03:20:54.872Z,17.37
2018-07-22T03:23:23.418Z,21.30
2018-07-22T03:25:52.439Z,17.50
2018-07-22T03:28:20.979Z,19.17
2018-07-22T03:30:49.528Z,17.37
2018-07-22T03:33:18.127Z,18.53
2018-07-22T03:35:46.663Z,18.80
2018-07-22T03:38:15.207Z,20.50
2018-07-22T03:40:43.790Z,20.30
2018-07-22T03:43:12.501Z,19.43
2018-07-22T03:45:41.040Z,20.27
2018-07-22T03:48:09.741Z,19.50
2018-07-22T03:50:38.304Z,19.83
2018-07-22T03:53:06.901Z,21.33
2018-07-22T03:55:35.475Z,19.17
2018-07-22T03:58:04.047Z,20.40
2018-07-22T04:00:32.678Z,20.57
2018-07-22T04:03:01.256Z,19.97
2018-07-22T04:05:29.789Z,19.30
2018-07-22T04:07:58.324Z,18.47
2018-07-22T04:10:26.924Z,19.40
2018-07-22T04:12:55.451Z,18.07
2018-07-22T04:15:24.075Z,18.40
2018-07-22T04:17:52.679Z,17.97
2018-07-22T04:20:21.214Z,16.60
2018-07-22T04:22:49.748Z,18.27
2018-07-22T04:25:18.463Z,17.63
2018-07-22T04:27:47.012Z,17.30
2018-07-22T04:30:15.544Z,17.17
2018-07-22T04:32:44.135Z,17.73
2018-07-22T04:35:12.676Z,17.77
2018-07-22T04:37:41.300Z,16.80
2018-07-22T04:40:10.085Z,17.33
2018-07-22T04:42:38.731Z,19.27
2018-07-22T04:45:07.753Z,17.10
2018-07-22T04:47:36.449Z,18.47
2018-07-22T04:50:05.054Z,17.53
2018-07-22T04:52:33.928Z,17.07
2018-07-22T04:55:02.824Z,18.77
2018-07-22T04:57:31.368Z,19.53
2018-07-22T04:59:59.917Z,18.43
2018-07-22T05:02:28.572Z,17.03
2018-07-22T05:04:57.116Z,17.90
2018-07-22T05:07:25.664Z,17.30
2018-07-22T05:09:54.251Z,16.87
2018-07-22T05:12:22.839Z,16.70
2018-07-22T05:14:51.371Z,16.40
2018-07-22T05:17:20.367Z,20.13
2018-07-22T05:19:48.945Z,17.20
2018-07-22T05:22:17.500Z,15.77
2018-07-22T05:24:46.109Z,15.67
2018-07-22T05:27:14.692Z,16.60
2018-07-22T05:29:43.540Z,15.43
2018-07-22T05:32:12.216Z,15.57
2018-07-22T05:34:41.943Z,16.57
2018-07-22T05:37:10.567Z,14.13
2018-07-22T05:39:39.355Z,15.10
2018-07-22T05:42:08.395Z,15.90
2018-07-22T05:44:37.008Z,16.60
2018-07-22T05:47:06.287Z,15.60
2018-07-22T05:49:34.836Z,16.07
2018-07-22T05:52:03.434Z,14.80
2018-07-22T05:54:32.099Z,16.37
2018-07-22T05:57:00.644Z,16.70
2018-07-22T05:59:29.200Z,15.90
2018-07-22T06:01:58.125Z,16.20
2018-07-22T06:04:26.690Z,15.77
2018-07-22T06:06:55.760Z,16.10
2018-07-22T06:09:24.371Z,16.10
2018-07-22T06:11:53.012Z,16.40
2018-07-22T06:14:21.516Z,16.50
2018-07-22T06:16:50.228Z,15.97
2018-07-22T06:19:18.797Z,15.47
2018-07-22T06:21:47.345Z,15.60
2018-07-22T06:24:15.954Z,14.97
2018-07-22T06:26:44.512Z,16.07
2018-07-22T06:29:13.060Z,15.27
2018-07-22T06:31:41.681Z,15.63
2018-07-22T06:34:10.273Z,15.57
2018-07-22T06:36:38.816Z,16.00
2018-07-22T06:39:10.280Z,13.30
2018-07-22T06:41:38.907Z,14.83
2018-07-22T06:44:07.447Z,14.43
2018-07-22T06:46:36.081Z,16.07
2018-07-22T06:49:04.628Z,13.87
2018-07-22T06:51:33.239Z,13.47
2018-07-22T06:54:02.135Z,12.37
2018-07-22T06:56:30.748Z,11.90
2018-07-22T06:58:59.274Z,11.87
2018-07-22T07:01:27.983Z,13.00
2018-07-22T07:03:57.347Z,12.33
2018-07-22T07:06:26.215Z,13.20
2018-07-22T07:08:55.663Z,14.90
2018-07-22T07:11:26.024Z,14.50
2018-07-22T07:13:56.892Z,14.10
2018-07-22T07:16:26.020Z,13.70
2018-07-22T07:18:55.990Z,14.00
2018-07-22T07:21:26.018Z,13.97
2018-07-22T07:23:55.676Z,13.60
2018-07-22T07:26:25.360Z,12.47
2018-07-22T07:28:56.170Z,12.10
2018-07-22T07:31:26.402Z,11.60
2018-07-22T07:33:55.577Z,13.47
2018-07-22T07:36:25.400Z,12.70
2018-07-22T07:38:54.426Z,13.03
2018-07-22T07:41:24.940Z,12.97
2018-07-22T07:43:54.548Z,13.47
2018-07-22T07:46:23.660Z,14.10
2018-07-22T07:48:53.408Z,13.90
2018-07-22T07:51:24.284Z,13.83
2018-07-22T07:53:53.003Z,13.13
2018-07-22T07:56:23.801Z,15.13
2018-07-22T07:58:52.464Z,12.97
2018-07-22T08:01:23.119Z,12.10
2018-07-22T08:03:53.769Z,12.97
2018-07-22T08:06:24.227Z,13.30
2018-07-22T08:08:54.924Z,12.40
2018-07-22T08:11:24.205Z,13.90
2018-07-22T08:13:52.843Z,12.90
2018-07-22T08:16:23.549Z,13.10
2018-07-22T08:18:56.437Z,12.87
2018-07-22T08:21:23.501Z,11.53
2018-07-22T08:23:54.007Z,12.20
2018-07-22T08:26:22.963Z,13.37
2018-07-22T08:29:26.437Z,11.67
2018-07-22T08:31:55.236Z,12.40
2018-07-22T08:34:24.048Z,12.43
2018-07-22T08:36:52.601Z,12.70
2018-07-22T08:39:23.661Z,11.80
2018-07-22T08:41:52.910Z,12.30
2018-07-22T08:44:21.658Z,12.20
2018-07-22T08:46:51.364Z,12.20
2018-07-22T08:49:21.419Z,11.80
2018-07-22T08:51:52.174Z,11.03
2018-07-22T08:54:22.386Z,11.83
2018-07-22T08:56:52.750Z,11.90
2018-07-22T08:59:23.262Z,12.17
2018-07-22T09:01:53.545Z,11.40
2018-07-22T09:04:22.751Z,12.27
2018-07-22T09:06:52.394Z,11.87
2018-07-22T09:09:22.378Z,11.70
2018-07-22T09:11:52.247Z,12.03
2018-07-22T09:14:20.829Z,10.40
2018-07-22T09:16:49.764Z,12.60
2018-07-22T09:19:19.249Z,11.63
2018-07-22T09:21:47.794Z,12.47
2018-07-22T09:24:17.256Z,11.40
2018-07-22T09:26:45.801Z,12.83
2018-07-22T09:29:14.548Z,11.70
2018-07-22T09:31:43.288Z,11.53
2018-07-22T09:34:11.840Z,10.57
2018-07-22T09:36:40.425Z,10.40
2018-07-22T09:39:10.787Z,10.23
2018-07-22T09:41:39.534Z,10.40
2018-07-22T09:44:08.216Z,12.20
2018-07-22T09:46:36.889Z,11.20
2018-07-22T09:49:06.396Z,11.40
2018-07-22T09:51:34.952Z,12.77
2018-07-22T09:54:03.677Z,12.53
2018-07-22T09:56:32.239Z,10.90
2018-07-22T09:59:01.145Z,10.40
2018-07-22T10:01:30.802Z,9.23
2018-07-22T10:03:59.478Z,11.17
2018-07-22T10:06:28.140Z,9.73
2018-07-22T10:08:57.216Z,10.07
2018-07-22T10:11:25.768Z,9.10
2018-07-22T10:13:54.315Z,9.53
2018-07-22T10:16:27.027Z,8.70
2018-07-22T10:18:55.588Z,10.93
2018-07-22T10:21:24.246Z,8.90
2018-07-22T10:23:52.819Z,10.07
2018-07-22T10:26:21.520Z,9.50
2018-07-22T10:28:51.174Z,8.90
2018-07-22T10:31:19.844Z,8.90
2018-07-22T10:33:48.418Z,7.03
2018-07-22T10:36:18.060Z,9.43
2018-07-22T10:38:46.733Z,9.20
2018-07-22T10:41:15.268Z,8.00
2018-07-22T10:43:43.848Z,7.80
2018-07-22T10:46:12.641Z,8.87
2018-07-22T10:48:41.287Z,7.70
2018-07-22T10:51:10.360Z,8.60
2018-07-22T10:53:38.931Z,6.77
2018-07-22T10:56:09.825Z,8.97
2018-07-22T10:58:39.402Z,8.30
2018-07-22T11:01:07.955Z,7.60
2018-07-22T11:03:36.756Z,8.20
2018-07-22T11:06:05.395Z,7.73
2018-07-22T11:08:34.808Z,6.80
2018-07-22T11:11:03.475Z,8.40
2018-07-22T11:13:33.336Z,7.40
2018-07-22T11:16:02.060Z,8.50
2018-07-22T11:18:30.621Z,8.43
2018-07-22T11:20:59.441Z,9.90
2018-07-22T11:23:28.335Z,11.13
2018-07-22T11:25:56.910Z,9.50
2018-07-22T11:28:25.838Z,10.33
2018-07-22T11:30:55.411Z,10.93
2018-07-22T11:33:25.390Z,11.13
2018-07-22T11:35:54.586Z,11.13
2018-07-22T11:38:23.927Z,9.57
2018-07-22T11:40:53.379Z,9.90
2018-07-22T11:43:25.048Z,9.63
2018-07-22T11:45:55.948Z,10.30
2018-07-22T11:48:24.517Z,10.83
2018-07-22T11:50:53.074Z,10.53
2018-07-22T11:53:21.703Z,11.10
2018-07-22T11:55:50.263Z,10.90
2018-07-22T11:58:18.813Z,10.67
2018-07-22T12:00:49.256Z,9.97
2018-07-22T12:03:19.555Z,9.00
2018-07-22T12:05:50.192Z,8.97
2018-07-22T12:08:19.357Z,10.43
2018-07-22T12:10:47.936Z,10.30
2018-07-22T12:13:16.520Z,9.57
2018-07-22T12:15:45.068Z,9.90
2018-07-22T12:18:13.624Z,10.30
2018-07-22T12:20:42.616Z,10.50
2018-07-22T12:23:12.857Z,11.00
2018-07-22T12:25:41.632Z,10.37
2018-07-22T12:28:10.432Z,9.27
2018-07-22T12:30:39.216Z,9.27
2018-07-22T12:33:07.768Z,10.03
2018-07-22T12:35:37.074Z,8.90
2018-07-22T12:38:05.768Z,9.10
2018-07-22T12:40:34.319Z,8.93
2018-07-22T12:43:02.940Z,9.93
2018-07-22T12:45:31.812Z,10.83
2018-07-22T12:48:00.375Z,10.60
2018-07-22T12:50:29.152Z,10.23
2018-07-22T12:52:57.828Z,10.20
2018-07-22T12:55:31.091Z,10.53
2018-07-22T12:57:59.656Z,10.30
2018-07-22T13:00:29.176Z,9.83
2018-07-22T13:02:58.392Z,11.73
2018-07-22T13:05:29.402Z,11.30
2018-07-22T13:07:58.000Z,11.70
2018-07-22T13:10:26.608Z,10.97
2018-07-22T13:12:55.227Z,11.53
2018-07-22T13:15:25.084Z,10.43
2018-07-22T13:17:54.686Z,11.20
2018-07-22T13:20:23.434Z,12.20
2018-07-22T13:22:52.268Z,13.00
2018-07-22T13:25:21.133Z,12.10
2018-07-22T13:27:50.235Z,12.77
2018-07-22T13:30:18.901Z,14.90
2018-07-22T13:32:48.216Z,13.30
2018-07-22T13:35:16.856Z,8.93
2018-07-22T13:37:45.482Z,6.47
2018-07-22T13:40:14.276Z,5.43
2018-07-22T13:42:42.820Z,5.00
2018-07-22T13:45:11.626Z,3.83
2018-07-22T13:47:40.172Z,3.43
2018-07-22T13:50:08.836Z,4.17
2018-07-22T13:52:37.895Z,4.73
2018-07-22T13:55:06.473Z,4.70
2018-07-22T13:57:35.040Z,5.00
2018-07-22T14:00:03.776Z,3.90
2018-07-22T14:02:32.495Z,5.00
2018-07-22T14:05:02.253Z,5.27
2018-07-22T14:07:31.005Z,6.00
2018-07-22T14:09:59.844Z,7.77
2018-07-22T14:12:28.485Z,7.20
2018-07-22T14:14:57.467Z,8.70
2018-07-22T14:17:26.017Z,8.00
2018-07-22T14:19:54.725Z,9.20
2018-07-22T14:22:23.680Z,9.90
2018-07-22T14:24:52.224Z,11.63
2018-07-22T14:27:20.791Z,11.70
2018-07-22T14:29:49.704Z,14.13
2018-07-22T14:32:18.364Z,14.40
2018-07-22T14:34:47.036Z,12.97
2018-07-22T14:37:15.715Z,13.10
2018-07-22T14:39:44.607Z,12.27
2018-07-22T14:42:13.151Z,13.57
2018-07-22T14:44:42.402Z,14.40
2018-07-22T14:47:11.345Z,12.63
2018-07-22T14:49:39.797Z,15.50
2018-07-22T14:52:08.645Z,15.07
2018-07-22T14:54:37.220Z,12.93
2018-07-22T14:57:05.788Z,14.27
2018-07-22T14:59:34.852Z,15.03
2018-07-22T15:02:03.435Z,14.87
2018-07-22T15:04:31.990Z,14.63
2018-07-22T15:07:00.904Z,16.57
2018-07-22T15:09:29.451Z,16.00
2018-07-22T15:11:59.243Z,18.70
2018-07-22T15:14:29.244Z,16.70
2018-07-22T15:16:58.439Z,16.07
2018-07-22T15:19:27.001Z,14.87
2018-07-22T15:21:55.709Z,15.90
2018-07-22T15:24:24.523Z,16.37
2018-07-22T15:26:53.359Z,17.90
2018-07-22T15:29:22.164Z,17.63
2018-07-22T15:31:51.074Z,18.90
2018-07-22T15:34:19.764Z,20.40
2018-07-22T15:36:48.515Z,21.00
2018-07-22T15:39:17.064Z,19.87
2018-07-22T15:41:46.133Z,20.60
2018-07-22T15:44:14.988Z,19.40
2018-07-22T15:46:43.547Z,20.40
2018-07-22T15:49:12.155Z,20.50
2018-07-22T15:51:41.046Z,20.20
2018-07-22T15:54:09.711Z,21.37
2018-07-22T15:56:38.540Z,19.70
2018-07-22T15:59:07.248Z,19.90
2018-07-22T16:01:38.416Z,20.80
2018-07-22T16:04:07.236Z,18.33
2018-07-22T16:06:36.565Z,18.57
2018-07-22T16:09:08.155Z,18.13
2018-07-22T16:11:37.772Z,18.10
2018-07-22T16:14:08.250Z,20.73
2018-07-22T16:16:37.631Z,18.50
2018-07-22T16:19:06.728Z,18.47
2018-07-22T16:21:36.352Z,17.17
2018-07-22T16:24:05.427Z,17.33
2018-07-22T16:26:34.356Z,17.80
2018-07-22T16:29:03.394Z,17.00
2018-07-22T16:31:32.031Z,16.57
2018-07-22T16:34:00.596Z,16.77
2018-07-22T16:36:30.350Z,16.80
2018-07-22T16:38:59.608Z,16.17
2018-07-22T16:41:28.513Z,15.87
2018-07-22T16:43:58.288Z,15.37
2018-07-22T16:46:27.557Z,13.00
2018-07-22T16:49:01.532Z,12.77
2018-07-22T16:51:32.416Z,12.97
2018-07-22T16:54:01.012Z,14.43
2018-07-22T16:56:30.832Z,15.93
2018-07-22T16:59:00.451Z,18.57
2018-07-22T17:01:30.495Z,20.30
2018-07-22T17:03:59.725Z,22.30
2018-07-22T17:06:29.456Z,21.37
2018-07-22T17:09:00.060Z,23.43
2018-07-22T17:11:30.276Z,22.43
2018-07-22T17:13:59.990Z,22.63
2018-07-22T17:16:31.443Z,19.50
2018-07-22T17:19:02.135Z,23.07
2018-07-22T17:21:31.431Z,23.93
2018-07-22T17:24:01.907Z,22.57
2018-07-22T17:26:31.432Z,24.37
2018-07-22T17:29:00.849Z,21.77
2018-07-22T17:31:29.518Z,23.00
2018-07-22T17:33:58.304Z,23.13
2018-07-22T17:36:26.843Z,22.67
2018-07-22T17:38:55.399Z,22.60
2018-07-22T17:41:24.024Z,21.80
2018-07-22T17:43:54.732Z,20.40
2018-07-22T17:46:23.813Z,21.53
2018-07-22T17:48:52.962Z,21.57
2018-07-22T17:51:23.015Z,22.83
2018-07-22T17:53:51.620Z,18.27
2018-07-22T17:56:20.537Z,19.00
2018-07-22T17:58:49.211Z,19.50
2018-07-22T18:01:18.089Z,19.67
2018-07-22T18:03:49.007Z,17.50
2018-07-22T18:06:18.208Z,17.20
2018-07-22T18:08:47.360Z,17.30
2018-07-22T18:11:15.949Z,18.53
2018-07-22T18:13:45.024Z,20.17
2018-07-22T18:16:13.563Z,17.87
2018-07-22T18:18:42.519Z,19.00
2018-07-22T18:21:11.157Z,18.03
2018-07-22T18:23:39.736Z,18.30
2018-07-22T18:26:08.700Z,19.60
2018-07-22T18:28:37.489Z,19.33
2018-07-22T18:31:06.128Z,19.33
2018-07-22T18:33:34.931Z,16.70
2018-07-22T18:36:03.528Z,18.37
2018-07-22T18:38:32.324Z,18.20
2018-07-22T18:41:00.980Z,18.27
2018-07-22T18:43:29.580Z,18.43
2018-07-22T18:45:58.179Z,17.27
2018-07-22T18:48:26.816Z,17.20
2018-07-22T18:50:55.528Z,16.87
2018-07-22T18:53:24.306Z,16.50
2018-07-22T18:55:52.860Z,14.97
2018-07-22T18:58:21.605Z,17.10
2018-07-22T19:00:50.147Z,17.17
2018-07-22T19:03:18.837Z,16.70
2018-07-22T19:05:47.467Z,17.13
2018-07-22T19:08:16.105Z,16.33
2018-07-22T19:10:44.673Z,18.40
2018-07-22T19:13:13.488Z,16.20
2018-07-22T19:15:42.047Z,18.40
2018-07-22T19:18:10.595Z,18.07
2018-07-22T19:20:39.556Z,19.20
2018-07-22T19:23:08.240Z,19.70
2018-07-22T19:25:36.879Z,18.30
2018-07-22T19:28:05.752Z,18.87
2018-07-22T19:30:34.957Z,18.97
2018-07-22T19:33:03.618Z,20.57
2018-07-22T19:35:32.389Z,20.80
2018-07-22T19:38:01.008Z,21.30
2018-07-22T19:40:29.637Z,22.20
2018-07-22T19:42:58.188Z,21.50
2018-07-22T19:45:26.784Z,21.97
2018-07-22T19:47:55.671Z,22.00
2018-07-22T19:50:24.557Z,20.80
2018-07-22T19:52:53.108Z,19.97
2018-07-22T19:55:21.740Z,21.53
2018-07-22T19:57:50.321Z,19.27
2018-07-22T20:00:18.874Z,23.77
2018-07-22T20:02:47.428Z,20.90
2018-07-22T20:05:16.352Z,21.60
2018-07-22T20:07:45.090Z,21.10
2018-07-22T20:10:14.114Z,23.00
2018-07-22T20:12:43.101Z,23.70
2018-07-22T20:15:11.642Z,26.27
2018-07-22T20:17:40.546Z,25.60
2018-07-22T20:20:11.068Z,27.40
2018-07-22T20:22:46.076Z,29.00
2018-07-22T20:25:14.828Z,28.50
2018-07-22T20:27:44.025Z,29.10
2018-07-22T20:30:12.627Z,28.83
2018-07-22T20:32:41.208Z,29.67
2018-07-22T20:35:09.803Z,30.40
2018-07-22T20:37:38.396Z,29.87
2018-07-22T20:40:07.338Z,26.10
2018-07-22T20:42:35.896Z,25.00
2018-07-22T20:45:04.827Z,25.60
2018-07-22T20:47:34.369Z,24.17
2018-07-22T20:50:02.937Z,24.00
2018-07-22T20:52:31.617Z,23.17
2018-07-22T20:55:01.391Z,24.10
2018-07-22T20:57:30.632Z,22.17
2018-07-22T20:59:59.216Z,23.63
2018-07-22T21:02:27.863Z,24.37
2018-07-22T21:04:56.736Z,22.13
2018-07-22T21:07:25.296Z,22.53
2018-07-22T21:09:54.036Z,24.70
2018-07-22T21:12:44.439Z,22.87
2018-07-22T21:15:13.517Z,23.10
2018-07-22T21:17:42.288Z,21.87
2018-07-22T21:20:11.370Z,23.00
2018-07-22T21:22:40.192Z,23.40
2018-07-22T21:25:08.774Z,22.57
2018-07-22T21:27:37.608Z,23.17
2018-07-22T21:30:07.131Z,23.97
2018-07-22T21:32:35.656Z,21.83
2018-07-22T21:35:04.496Z,22.00
2018-07-22T21:37:33.248Z,21.60
2018-07-22T21:40:02.055Z,21.43
2018-07-22T21:42:31.390Z,22.50
2018-07-22T21:44:59.992Z,22.43
2018-07-22T21:47:28.585Z,22.60
2018-07-22T21:49:57.176Z,22.53
2018-07-22T21:52:25.912Z,21.33
2018-07-22T21:54:54.650Z,23.47
2018-07-22T21:57:23.325Z,23.07
2018-07-22T21:59:52.233Z,24.30
2018-07-22T22:02:20.883Z,24.23
2018-07-22T22:04:49.454Z,24.93
2018-07-22T22:07:18.074Z,22.97
2018-07-22T22:09:46.591Z,24.47
2018-07-22T22:12:15.144Z,21.43
2018-07-22T22:14:43.715Z,24.93
2018-07-22T22:17:12.285Z,24.10
2018-07-22T22:19:40.836Z,24.13
2018-07-22T22:22:09.460Z,24.43
2018-07-22T22:24:38.105Z,26.73
2018-07-22T22:27:06.719Z,25.97
2018-07-22T22:29:36.668Z,23.07
2018-07-22T22:32:06.779Z,24.93
2018-07-22T22:34:36.186Z,24.87
2018-07-22T22:37:05.296Z,25.50
2018-07-22T22:39:34.392Z,26.57
2018-07-22T22:42:03.661Z,25.50
2018-07-22T22:44:32.825Z,25.93
2018-07-22T22:47:01.516Z,26.50
2018-07-22T22:49:30.113Z,26.53
2018-07-22T22:51:58.656Z,26.83
2018-07-22T22:54:27.397Z,25.07
2018-07-22T22:56:56.234Z,25.37
2018-07-22T22:59:24.937Z,24.30
2018-07-22T23:01:53.619Z,26.50
2018-07-22T23:04:22.225Z,25.00
2018-07-22T23:06:50.890Z,24.23
2018-07-22T23:09:19.678Z,25.17
2018-07-22T23:11:48.310Z,22.73
2018-07-22T23:14:17.600Z,24.13
2018-07-22T23:16:46.221Z,25.93
2018-07-22T23:19:14.846Z,25.50
2018-07-22T23:21:43.481Z,26.50
2018-07-22T23:24:12.714Z,25.57
2018-07-22T23:26:41.707Z,25.57
2018-07-22T23:29:10.644Z,25.50
2018-07-22T23:31:40.227Z,24.77
2018-07-22T23:34:09.872Z,26.83
2018-07-22T23:36:38.604Z,24.87
2018-07-22T23:39:08.675Z,26.17
2018-07-22T23:41:37.511Z,27.63
2018-07-22T23:44:06.480Z,25.70
2018-07-22T23:46:35.189Z,26.20
2018-07-22T23:49:04.599Z,27.10
2018-07-22T23:51:33.181Z,27.80
2018-07-22T23:54:01.753Z,26.77
2018-07-22T23:56:30.356Z,28.30
2018-07-22T23:58:59.052Z,30.40
